createdAt,value
2017-07-01T00:00:04.773Z,45.8
2017-07-01T00:01:06.528Z,45.7
2017-07-01T00:02:08.157Z,45.8
2017-07-01T00:03:09.892Z,45.8
2017-07-01T00:04:11.562Z,45.9
2017-07-01T00:05:13.061Z,46.0
2017-07-01T00:06:14.755Z,45.8
2017-07-01T00:07:16.393Z,45.9
2017-07-01T00:08:18.010Z,45.5
2017-07-01T00:09:19.719Z,46.0
2017-07-01T00:10:21.413Z,46.1
2017-07-01T00:11:23.030Z,45.8
2017-07-01T00:12:24.815Z,45.8
2017-07-01T00:13:26.455Z,45.8
2017-07-01T00:14:28.052Z,46.4
2017-07-01T00:15:29.705Z,45.7
2017-07-01T00:16:31.373Z,46.0
2017-07-01T00:17:33.010Z,45.9
2017-07-01T00:18:34.635Z,45.9
2017-07-01T00:19:36.296Z,46.0
2017-07-01T00:20:37.919Z,46.1
2017-07-01T00:21:39.632Z,46.3
2017-07-01T00:22:41.265Z,46.1
2017-07-01T00:23:43.006Z,46.2
2017-07-01T00:24:44.503Z,46.2
2017-07-01T00:25:46.169Z,46.0
2017-07-01T00:26:47.841Z,46.1
2017-07-01T00:27:49.444Z,46.1
2017-07-01T00:28:51.306Z,46.6
2017-07-01T00:29:52.959Z,46.0
2017-07-01T00:30:54.704Z,46.5
2017-07-01T00:31:56.384Z,46.5
2017-07-01T00:32:58.053Z,46.3
2017-07-01T00:33:59.760Z,46.5
2017-07-01T00:35:01.478Z,46.4
2017-07-01T00:36:03.154Z,46.7
2017-07-01T00:37:04.804Z,46.8
2017-07-01T00:38:06.458Z,46.9
2017-07-01T00:39:08.102Z,46.5
2017-07-01T00:40:09.756Z,46.7
2017-07-01T00:41:11.472Z,46.6
2017-07-01T00:42:13.207Z,46.6
2017-07-01T00:43:14.885Z,46.8
2017-07-01T00:44:16.501Z,46.7
2017-07-01T00:45:18.184Z,46.7
2017-07-01T00:46:19.844Z,46.7
2017-07-01T00:47:21.583Z,46.6
2017-07-01T00:48:23.312Z,46.8
2017-07-01T00:49:24.962Z,46.6
2017-07-01T00:50:26.730Z,46.7
2017-07-01T00:51:28.342Z,46.7
2017-07-01T00:52:29.969Z,46.6
2017-07-01T00:53:31.662Z,46.6
2017-07-01T00:54:33.344Z,46.5
2017-07-01T00:55:35.077Z,46.6
2017-07-01T00:56:36.781Z,46.6
2017-07-01T00:57:38.407Z,46.7
2017-07-01T00:58:40.152Z,46.7
2017-07-01T00:59:41.854Z,46.5
2017-07-01T01:00:43.607Z,46.6
2017-07-01T01:01:45.267Z,46.4
2017-07-01T01:02:46.924Z,46.7
2017-07-01T01:03:48.661Z,46.4
2017-07-01T01:04:50.461Z,46.6
2017-07-01T01:05:52.090Z,46.5
2017-07-01T01:06:53.878Z,46.3
2017-07-01T01:07:55.374Z,46.3
2017-07-01T01:08:56.977Z,46.4
2017-07-01T01:09:58.669Z,46.6
2017-07-01T01:11:00.366Z,46.3
2017-07-01T01:12:02.150Z,46.4
2017-07-01T01:13:03.804Z,46.3
2017-07-01T01:14:05.472Z,46.6
2017-07-01T01:15:07.212Z,46.4
2017-07-01T01:16:08.897Z,46.4
2017-07-01T01:17:10.521Z,46.4
2017-07-01T01:18:12.140Z,46.6
2017-07-01T01:19:13.834Z,46.4
2017-07-01T01:20:15.492Z,46.5
2017-07-01T01:21:17.186Z,46.7
2017-07-01T01:22:18.873Z,46.3
2017-07-01T01:23:20.468Z,46.5
2017-07-01T01:24:22.209Z,46.5
2017-07-01T01:25:23.780Z,46.4
2017-07-01T01:26:25.518Z,46.5
2017-07-01T01:27:27.219Z,46.7
2017-07-01T01:28:28.843Z,46.8
2017-07-01T01:29:30.488Z,46.9
2017-07-01T01:30:32.189Z,46.3
2017-07-01T01:31:33.888Z,46.5
2017-07-01T01:32:35.584Z,46.3
2017-07-01T01:33:37.309Z,46.6
2017-07-01T01:34:38.996Z,46.3
2017-07-01T01:35:40.827Z,46.6
2017-07-01T01:36:42.476Z,46.5
2017-07-01T01:37:44.185Z,46.4
2017-07-01T01:38:46.036Z,46.8
2017-07-01T01:39:47.498Z,46.7
2017-07-01T01:40:49.204Z,46.7
2017-07-01T01:41:51.034Z,46.5
2017-07-01T01:42:52.719Z,46.7
2017-07-01T01:43:54.399Z,46.8
2017-07-01T01:44:56.106Z,46.6
2017-07-01T01:45:57.821Z,46.3
2017-07-01T01:46:59.446Z,46.4
2017-07-01T01:48:01.071Z,46.7
2017-07-01T01:49:02.725Z,46.8
2017-07-01T01:50:04.369Z,46.6
2017-07-01T01:51:06.054Z,46.7
2017-07-01T01:52:07.743Z,46.6
2017-07-01T01:53:09.429Z,46.8
2017-07-01T01:54:11.091Z,46.9
2017-07-01T01:55:12.804Z,46.7
2017-07-01T01:56:14.510Z,46.9
2017-07-01T01:57:16.171Z,46.7
2017-07-01T01:58:17.849Z,46.5
2017-07-01T01:59:19.580Z,46.6
2017-07-01T02:00:21.336Z,46.6
2017-07-01T02:01:22.819Z,46.6
2017-07-01T02:02:24.292Z,47.0
2017-07-01T02:03:25.932Z,46.6
2017-07-01T02:04:27.644Z,46.8
2017-07-01T02:05:29.298Z,46.8
2017-07-01T02:06:30.991Z,46.6
2017-07-01T02:07:32.799Z,47.0
2017-07-01T02:08:34.515Z,47.0
2017-07-01T02:09:36.210Z,46.6
2017-07-01T02:10:37.843Z,47.0
2017-07-01T02:11:39.542Z,46.8
2017-07-01T02:12:41.260Z,46.8
2017-07-01T02:13:43.050Z,47.0
2017-07-01T02:14:44.773Z,46.8
2017-07-01T02:15:46.498Z,46.8
2017-07-01T02:16:48.193Z,46.9
2017-07-01T02:17:49.859Z,47.0
2017-07-01T02:18:51.644Z,47.0
2017-07-01T02:19:53.300Z,47.0
2017-07-01T02:20:55.013Z,47.0
2017-07-01T02:21:56.682Z,46.8
2017-07-01T02:22:58.329Z,46.8
2017-07-01T02:23:59.995Z,47.1
2017-07-01T02:25:01.683Z,47.0
2017-07-01T02:26:03.367Z,46.9
2017-07-01T02:27:05.067Z,47.1
2017-07-01T02:28:06.819Z,47.0
2017-07-01T02:29:08.502Z,46.8
2017-07-01T02:30:10.158Z,46.9
2017-07-01T02:31:11.848Z,47.0
2017-07-01T02:32:13.538Z,47.0
2017-07-01T02:33:15.227Z,47.0
2017-07-01T02:34:16.851Z,46.8
2017-07-01T02:35:18.527Z,46.8
2017-07-01T02:36:20.095Z,47.0
2017-07-01T02:37:21.742Z,46.8
2017-07-01T02:38:23.465Z,47.1
2017-07-01T02:39:25.107Z,47.1
2017-07-01T02:40:26.905Z,46.8
2017-07-01T02:41:28.579Z,47.1
2017-07-01T02:42:30.323Z,47.1
2017-07-01T02:43:32.103Z,46.8
2017-07-01T02:44:33.792Z,46.8
2017-07-01T02:45:35.512Z,46.5
2017-07-01T02:46:37.170Z,47.0
2017-07-01T02:47:38.886Z,46.9
2017-07-01T02:48:40.536Z,47.0
2017-07-01T02:49:42.209Z,47.0
2017-07-01T02:50:43.853Z,46.9
2017-07-01T02:51:45.493Z,46.8
2017-07-01T02:52:47.255Z,47.0
2017-07-01T02:53:48.952Z,47.0
2017-07-01T02:54:50.730Z,47.0
2017-07-01T02:55:52.326Z,47.0
2017-07-01T02:56:53.986Z,46.6
2017-07-01T02:57:55.660Z,47.0
2017-07-01T02:58:57.361Z,47.1
2017-07-01T02:59:59.046Z,47.0
2017-07-01T03:01:00.714Z,47.0
2017-07-01T03:02:02.397Z,47.0
2017-07-01T03:03:04.124Z,46.9
2017-07-01T03:04:05.785Z,47.0
2017-07-01T03:05:07.412Z,47.0
2017-07-01T03:06:09.121Z,46.9
2017-07-01T03:07:10.868Z,47.0
2017-07-01T03:08:12.557Z,47.0
2017-07-01T03:09:14.296Z,47.1
2017-07-01T03:10:15.950Z,46.9
2017-07-01T03:11:17.647Z,47.0
2017-07-01T03:12:19.311Z,47.0
2017-07-01T03:13:21.052Z,47.0
2017-07-01T03:14:22.780Z,47.1
2017-07-01T03:15:24.490Z,46.9
2017-07-01T03:16:26.219Z,47.0
2017-07-01T03:17:27.873Z,46.9
2017-07-01T03:18:29.595Z,47.0
2017-07-01T03:19:31.181Z,47.0
2017-07-01T03:20:32.846Z,47.1
2017-07-01T03:21:34.704Z,46.9
2017-07-01T03:22:36.390Z,47.0
2017-07-01T03:23:38.115Z,46.9
2017-07-01T03:24:39.849Z,47.0
2017-07-01T03:25:41.572Z,47.0
2017-07-01T03:26:43.342Z,47.0
2017-07-01T03:27:44.999Z,46.9
2017-07-01T03:28:46.662Z,47.1
2017-07-01T03:29:48.331Z,47.1
2017-07-01T03:30:49.957Z,47.0
2017-07-01T03:31:51.877Z,47.0
2017-07-01T03:32:53.574Z,47.0
2017-07-01T03:33:56.143Z,47.1
2017-07-01T03:34:58.090Z,47.2
2017-07-01T03:36:00.955Z,47.1
2017-07-01T03:37:03.500Z,47.0
2017-07-01T03:38:05.656Z,47.2
2017-07-01T03:39:07.577Z,47.1
2017-07-01T03:40:10.157Z,47.0
2017-07-01T03:41:12.013Z,47.3
2017-07-01T03:42:13.755Z,47.0
2017-07-01T03:43:15.539Z,47.4
2017-07-01T03:44:17.202Z,47.5
2017-07-01T03:45:19.267Z,47.3
2017-07-01T03:46:21.941Z,47.0
2017-07-01T03:47:24.278Z,47.2
2017-07-01T03:48:26.647Z,47.0
2017-07-01T03:49:28.314Z,47.1
2017-07-01T03:50:29.963Z,47.3
2017-07-01T03:51:31.687Z,47.3
2017-07-01T03:52:33.450Z,47.4
2017-07-01T03:53:35.106Z,47.3
2017-07-01T03:54:36.767Z,47.3
2017-07-01T03:55:38.356Z,47.5
2017-07-01T03:56:40.085Z,47.2
2017-07-01T03:57:41.778Z,47.3
2017-07-01T03:58:43.444Z,47.2
2017-07-01T03:59:45.134Z,47.3
2017-07-01T04:00:46.825Z,47.1
2017-07-01T04:01:48.479Z,47.2
2017-07-01T04:02:50.224Z,47.4
2017-07-01T04:03:51.920Z,47.4
2017-07-01T04:04:53.619Z,47.3
2017-07-01T04:05:55.321Z,47.5
2017-07-01T04:06:57.096Z,47.4
2017-07-01T04:07:58.731Z,47.1
2017-07-01T04:09:00.379Z,47.2
2017-07-01T04:10:02.059Z,47.2
2017-07-01T04:11:03.685Z,47.3
2017-07-01T04:12:05.333Z,47.5
2017-07-01T04:13:07.039Z,47.2
2017-07-01T04:14:08.738Z,47.3
2017-07-01T04:15:10.410Z,47.2
2017-07-01T04:16:12.129Z,47.2
2017-07-01T04:17:13.787Z,47.3
2017-07-01T04:18:15.459Z,47.1
2017-07-01T04:19:17.082Z,47.0
2017-07-01T04:20:18.750Z,47.3
2017-07-01T04:21:20.448Z,47.0
2017-07-01T04:22:22.199Z,47.0
2017-07-01T04:23:23.900Z,47.2
2017-07-01T04:24:27.061Z,47.2
2017-07-01T04:25:30.560Z,47.2
2017-07-01T04:26:32.538Z,47.1
2017-07-01T04:27:34.248Z,47.1
2017-07-01T04:28:35.934Z,47.1
2017-07-01T04:29:37.674Z,47.3
2017-07-01T04:30:39.330Z,47.4
2017-07-01T04:31:40.910Z,47.1
2017-07-01T04:32:42.785Z,47.1
2017-07-01T04:33:44.510Z,47.2
2017-07-01T04:34:46.134Z,47.3
2017-07-01T04:35:47.807Z,47.2
2017-07-01T04:36:49.522Z,47.2
2017-07-01T04:37:51.234Z,47.3
2017-07-01T04:38:52.905Z,47.3
2017-07-01T04:39:54.608Z,47.3
2017-07-01T04:40:56.252Z,47.3
2017-07-01T04:41:58.058Z,47.3
2017-07-01T04:42:59.730Z,47.2
2017-07-01T04:44:01.362Z,47.4
2017-07-01T04:45:02.984Z,47.4
2017-07-01T04:46:04.652Z,47.3
2017-07-01T04:47:06.360Z,47.2
2017-07-01T04:48:07.996Z,47.4
2017-07-01T04:49:09.664Z,47.3
2017-07-01T04:50:11.314Z,47.4
2017-07-01T04:51:12.971Z,47.3
2017-07-01T04:52:14.605Z,47.6
2017-07-01T04:53:16.080Z,47.2
2017-07-01T04:54:17.707Z,47.2
2017-07-01T04:55:19.296Z,47.2
2017-07-01T04:56:20.917Z,47.3
2017-07-01T04:57:22.553Z,47.2
2017-07-01T04:58:24.251Z,47.3
2017-07-01T04:59:25.880Z,47.3
2017-07-01T05:00:27.536Z,47.2
2017-07-01T05:01:29.204Z,47.4
2017-07-01T05:02:30.912Z,47.5
2017-07-01T05:03:32.644Z,47.2
2017-07-01T05:04:34.306Z,47.2
2017-07-01T05:05:35.909Z,47.4
2017-07-01T05:06:37.520Z,47.1
2017-07-01T05:07:39.165Z,47.2
2017-07-01T05:08:40.805Z,47.2
2017-07-01T05:09:42.508Z,47.2
2017-07-01T05:10:44.113Z,47.2
2017-07-01T05:11:45.781Z,47.0
2017-07-01T05:12:47.375Z,47.2
2017-07-01T05:13:49.085Z,47.2
2017-07-01T05:14:50.720Z,47.5
2017-07-01T05:15:52.392Z,47.5
2017-07-01T05:16:54.035Z,47.5
2017-07-01T05:17:55.696Z,47.7
2017-07-01T05:18:57.356Z,47.5
2017-07-01T05:19:59.032Z,47.7
2017-07-01T05:21:00.669Z,47.8
2017-07-01T05:22:02.263Z,48.0
2017-07-01T05:23:03.832Z,47.8
2017-07-01T05:24:05.321Z,48.3
2017-07-01T05:25:07.025Z,48.9
2017-07-01T05:26:08.661Z,49.2
2017-07-01T05:27:10.342Z,49.5
2017-07-01T05:28:12.001Z,49.2
2017-07-01T05:29:13.725Z,49.3
2017-07-01T05:30:15.408Z,48.5
2017-07-01T05:31:17.019Z,49.0
2017-07-01T05:32:18.710Z,49.0
2017-07-01T05:33:20.450Z,50.0
2017-07-01T05:34:22.175Z,50.5
2017-07-01T05:35:23.854Z,50.0
2017-07-01T05:36:25.500Z,49.5
2017-07-01T05:37:27.148Z,49.5
2017-07-01T05:38:28.763Z,49.2
2017-07-01T05:39:30.425Z,49.6
2017-07-01T05:40:32.085Z,50.7
2017-07-01T05:41:33.807Z,50.2
2017-07-01T05:42:35.479Z,49.7
2017-07-01T05:43:37.084Z,50.5
2017-07-01T05:44:38.785Z,50.8
2017-07-01T05:45:40.458Z,51.1
2017-07-01T05:46:42.169Z,50.1
2017-07-01T05:47:43.871Z,51.1
2017-07-01T05:48:45.549Z,50.2
2017-07-01T05:49:47.242Z,50.4
2017-07-01T05:50:48.912Z,50.3
2017-07-01T05:51:50.747Z,50.4
2017-07-01T05:52:52.424Z,51.0
2017-07-01T05:53:54.350Z,51.9
2017-07-01T05:54:56.012Z,51.4
2017-07-01T05:55:57.708Z,50.8
2017-07-01T05:56:59.383Z,50.2
2017-07-01T05:58:01.035Z,50.5
2017-07-01T05:59:02.744Z,50.7
2017-07-01T06:00:04.491Z,50.2
2017-07-01T06:01:06.230Z,50.1
2017-07-01T06:02:07.865Z,49.5
2017-07-01T06:03:09.532Z,49.6
2017-07-01T06:04:11.284Z,49.7
2017-07-01T06:05:12.921Z,49.9
2017-07-01T06:06:14.584Z,50.5
2017-07-01T06:07:16.343Z,50.5
2017-07-01T06:08:18.120Z,50.9
2017-07-01T06:09:19.865Z,51.4
2017-07-01T06:10:21.609Z,52.0
2017-07-01T06:11:23.251Z,50.7
2017-07-01T06:12:24.901Z,50.2
2017-07-01T06:13:26.620Z,51.0
2017-07-01T06:14:28.340Z,50.7
2017-07-01T06:15:29.980Z,50.5
2017-07-01T06:16:31.615Z,50.5
2017-07-01T06:17:33.227Z,51.2
2017-07-01T06:18:34.916Z,51.4
2017-07-01T06:19:36.558Z,51.7
2017-07-01T06:20:38.270Z,51.4
2017-07-01T06:21:40.014Z,51.6
2017-07-01T06:22:41.652Z,51.1
2017-07-01T06:23:43.310Z,50.7
2017-07-01T06:24:44.982Z,52.0
2017-07-01T06:25:46.587Z,50.9
2017-07-01T06:26:48.267Z,50.8
2017-07-01T06:27:49.915Z,51.0
2017-07-01T06:28:51.616Z,50.2
2017-07-01T06:29:53.220Z,50.6
2017-07-01T06:30:54.883Z,50.7
2017-07-01T06:31:56.488Z,50.4
2017-07-01T06:32:58.098Z,50.6
2017-07-01T06:33:59.760Z,50.0
2017-07-01T06:35:01.413Z,51.9
2017-07-01T06:36:02.853Z,46.9
2017-07-01T06:37:04.568Z,45.6
2017-07-01T06:38:06.033Z,50.3
2017-07-01T06:39:07.556Z,50.5
2017-07-01T06:40:09.287Z,43.6
2017-07-01T06:41:10.907Z,46.1
2017-07-01T06:42:12.541Z,48.3
2017-07-01T06:43:14.184Z,49.4
2017-07-01T06:44:15.711Z,49.4
2017-07-01T06:45:17.380Z,49.1
2017-07-01T06:46:18.933Z,48.9
2017-07-01T06:47:20.581Z,49.4
2017-07-01T06:48:22.226Z,50.3
2017-07-01T06:49:24.079Z,49.8
2017-07-01T06:50:25.838Z,48.2
2017-07-01T06:51:27.940Z,48.1
2017-07-01T06:52:29.405Z,48.5
2017-07-01T06:53:31.085Z,48.5
2017-07-01T06:54:32.746Z,47.5
2017-07-01T06:55:34.587Z,48.1
2017-07-01T06:56:36.423Z,48.3
2017-07-01T06:57:38.131Z,47.1
2017-07-01T06:58:39.766Z,46.8
2017-07-01T06:59:41.536Z,46.7
2017-07-01T07:00:43.239Z,47.0
2017-07-01T07:01:44.893Z,46.5
2017-07-01T07:02:46.547Z,46.0
2017-07-01T07:03:48.286Z,45.8
2017-07-01T07:04:49.920Z,45.8
2017-07-01T07:05:51.721Z,45.7
2017-07-01T07:06:53.323Z,45.5
2017-07-01T07:07:55.017Z,45.7
2017-07-01T07:08:56.519Z,46.6
2017-07-01T07:09:58.018Z,48.9
2017-07-01T07:10:59.542Z,47.0
2017-07-01T07:12:01.179Z,45.8
2017-07-01T07:13:03.055Z,47.0
2017-07-01T07:14:04.710Z,48.4
2017-07-01T07:15:06.394Z,46.7
2017-07-01T07:16:08.153Z,48.4
2017-07-01T07:17:09.832Z,47.2
2017-07-01T07:18:11.291Z,46.8
2017-07-01T07:19:12.820Z,45.1
2017-07-01T07:20:14.473Z,44.3
2017-07-01T07:21:15.969Z,44.0
2017-07-01T07:22:17.616Z,44.2
2017-07-01T07:23:19.302Z,44.3
2017-07-01T07:24:20.796Z,44.4
2017-07-01T07:25:22.429Z,45.5
2017-07-01T07:26:24.065Z,44.4
2017-07-01T07:27:25.563Z,44.5
2017-07-01T07:28:27.234Z,44.1
2017-07-01T07:29:28.865Z,44.1
2017-07-01T07:30:30.535Z,45.8
2017-07-01T07:31:32.168Z,44.3
2017-07-01T07:32:33.765Z,43.6
2017-07-01T07:33:35.759Z,43.8
2017-07-01T07:34:37.411Z,44.3
2017-07-01T07:35:39.031Z,42.8
2017-07-01T07:36:40.681Z,46.5
2017-07-01T07:37:42.328Z,43.7
2017-07-01T07:38:44.385Z,44.1
2017-07-01T07:39:46.140Z,44.7
2017-07-01T07:40:47.671Z,45.2
2017-07-01T07:41:49.293Z,46.7
2017-07-01T07:42:51.008Z,45.7
2017-07-01T07:43:52.637Z,46.9
2017-07-01T07:44:54.284Z,46.5
2017-07-01T07:45:55.937Z,46.7
2017-07-01T07:46:57.570Z,46.7
2017-07-01T07:47:59.267Z,46.6
2017-07-01T07:49:01.025Z,46.2
2017-07-01T07:50:02.705Z,46.6
2017-07-01T07:51:04.367Z,46.5
2017-07-01T07:52:06.027Z,46.4
2017-07-01T07:53:07.671Z,46.5
2017-07-01T07:54:09.292Z,46.7
2017-07-01T07:55:10.989Z,50.2
2017-07-01T07:56:12.658Z,47.9
2017-07-01T07:57:14.269Z,48.2
2017-07-01T07:58:15.985Z,48.3
2017-07-01T07:59:17.674Z,48.3
2017-07-01T08:00:19.406Z,48.2
2017-07-01T08:01:21.097Z,48.2
2017-07-01T08:02:22.804Z,48.5
2017-07-01T08:03:24.440Z,48.9
2017-07-01T08:04:26.114Z,48.6
2017-07-01T08:05:27.688Z,48.8
2017-07-01T08:06:29.350Z,48.5
2017-07-01T08:07:31.093Z,48.3
2017-07-01T08:08:32.747Z,51.4
2017-07-01T08:09:34.550Z,49.3
2017-07-01T08:10:36.298Z,49.3
2017-07-01T08:11:37.913Z,48.9
2017-07-01T08:12:39.586Z,52.2
2017-07-01T08:13:41.294Z,50.9
2017-07-01T08:14:42.874Z,53.2
2017-07-01T08:15:44.478Z,48.6
2017-07-01T08:16:46.175Z,47.8
2017-07-01T08:17:47.846Z,48.4
2017-07-01T08:18:49.555Z,48.7
2017-07-01T08:19:51.208Z,50.1
2017-07-01T08:20:52.808Z,48.2
2017-07-01T08:21:54.423Z,48.7
2017-07-01T08:22:56.172Z,48.9
2017-07-01T08:23:57.831Z,49.0
2017-07-01T08:24:59.516Z,49.3
2017-07-01T08:26:00.981Z,49.3
2017-07-01T08:27:02.684Z,48.9
2017-07-01T08:28:04.251Z,48.2
2017-07-01T08:29:05.861Z,48.8
2017-07-01T08:30:07.336Z,50.7
2017-07-01T08:31:08.939Z,48.3
2017-07-01T08:32:10.683Z,48.1
2017-07-01T08:33:12.292Z,48.9
2017-07-01T08:34:13.857Z,48.8
2017-07-01T08:35:15.309Z,48.8
2017-07-01T08:36:16.884Z,48.2
2017-07-01T08:37:18.474Z,49.1
2017-07-01T08:38:20.127Z,48.9
2017-07-01T08:39:21.835Z,48.7
2017-07-01T08:40:23.424Z,48.5
2017-07-01T08:41:24.986Z,48.2
2017-07-01T08:55:05.893Z,66.7
2017-07-01T08:56:07.493Z,65.5
2017-07-01T08:57:29.311Z,67.3
2017-07-01T08:58:30.848Z,66.5
2017-07-01T08:59:32.422Z,65.5
2017-07-01T09:00:33.983Z,67.5
2017-07-01T09:01:35.533Z,65.9
2017-07-01T09:02:37.182Z,69.0
2017-07-01T09:03:38.782Z,67.7
2017-07-01T09:04:40.359Z,67.0
2017-07-01T09:05:42.331Z,67.3
2017-07-01T09:06:43.906Z,68.8
2017-07-01T09:07:45.463Z,68.3
2017-07-01T09:08:47.153Z,67.6
2017-07-01T09:09:48.598Z,67.4
2017-07-01T09:10:50.312Z,68.1
2017-07-01T09:11:51.920Z,69.3
2017-07-01T09:12:53.674Z,67.9
2017-07-01T09:13:55.249Z,67.8
2017-07-01T09:14:56.687Z,66.5
2017-07-01T09:15:58.305Z,67.7
2017-07-01T09:16:59.904Z,67.2
2017-07-01T09:18:01.515Z,67.5
2017-07-01T09:19:03.102Z,67.4
2017-07-01T09:20:04.555Z,67.6
2017-07-01T09:21:06.039Z,69.0
2017-07-01T09:22:07.559Z,69.2
2017-07-01T09:23:09.038Z,69.3
2017-07-01T09:24:10.598Z,69.1
2017-07-01T09:25:12.222Z,69.2
2017-07-01T09:26:13.713Z,68.9
2017-07-01T09:27:15.420Z,67.0
2017-07-01T09:28:16.945Z,67.3
2017-07-01T09:29:18.495Z,67.2
2017-07-01T09:30:20.053Z,66.9
2017-07-01T09:31:21.824Z,69.0
2017-07-01T09:32:23.444Z,68.2
2017-07-01T09:33:24.996Z,70.7
2017-07-01T09:34:26.699Z,70.2
2017-07-01T09:35:28.254Z,69.7
2017-07-01T09:36:29.814Z,69.6
2017-07-01T09:37:31.353Z,70.2
2017-07-01T09:38:33.017Z,69.9
2017-07-01T09:39:34.579Z,69.6
2017-07-01T09:40:36.139Z,68.9
2017-07-01T09:41:37.793Z,69.5
2017-07-01T09:42:39.467Z,68.7
2017-07-01T09:43:41.110Z,67.0
2017-07-01T09:44:42.601Z,68.8
2017-07-01T09:45:44.170Z,67.8
2017-07-01T09:46:45.876Z,67.9
2017-07-01T09:47:47.472Z,67.6
2017-07-01T09:48:49.096Z,66.5
2017-07-01T09:49:50.681Z,65.6
2017-07-01T09:50:52.332Z,67.2
2017-07-01T09:51:53.932Z,67.6
2017-07-01T09:52:55.548Z,68.9
2017-07-01T09:53:57.113Z,68.2
2017-07-01T09:54:58.750Z,67.4
2017-07-01T09:56:00.325Z,68.1
2017-07-01T09:57:01.980Z,67.4
2017-07-01T09:58:03.622Z,66.7
2017-07-01T09:59:05.277Z,65.7
2017-07-01T10:00:06.960Z,67.9
2017-07-01T10:01:08.635Z,69.0
2017-07-01T10:02:10.262Z,67.8
2017-07-01T10:03:11.872Z,67.9
2017-07-01T10:04:13.493Z,67.8
2017-07-01T10:05:15.129Z,69.0
2017-07-01T10:06:16.713Z,68.9
2017-07-01T10:07:18.369Z,69.8
2017-07-01T10:08:19.963Z,69.7
2017-07-01T10:09:21.630Z,70.0
2017-07-01T10:10:23.260Z,68.8
2017-07-01T10:11:24.736Z,68.3
2017-07-01T10:12:26.393Z,65.8
2017-07-01T10:13:27.972Z,65.0
2017-07-01T10:14:29.707Z,65.4
2017-07-01T10:15:31.280Z,67.7
2017-07-01T10:16:32.936Z,65.3
2017-07-01T10:17:34.532Z,63.4
2017-07-01T10:18:36.125Z,62.0
2017-07-01T10:19:37.758Z,61.2
2017-07-01T10:20:39.351Z,61.1
2017-07-01T10:21:41.056Z,63.8
2017-07-01T10:22:42.660Z,62.8
2017-07-01T10:23:44.344Z,62.8
2017-07-01T10:24:45.968Z,63.3
2017-07-01T10:25:47.454Z,67.1
2017-07-01T10:26:49.035Z,66.5
2017-07-01T10:27:50.613Z,63.3
2017-07-01T10:28:52.332Z,63.3
2017-07-01T10:29:53.944Z,61.8
2017-07-01T10:30:55.512Z,61.3
2017-07-01T10:31:57.108Z,60.5
2017-07-01T10:32:58.785Z,62.7
2017-07-01T10:34:00.313Z,63.4
2017-07-01T10:35:01.796Z,65.0
2017-07-01T10:36:03.380Z,65.3
2017-07-01T10:37:04.982Z,63.5
2017-07-01T10:38:06.715Z,64.0
2017-07-01T10:39:08.308Z,65.8
2017-07-01T10:40:09.790Z,67.8
2017-07-01T10:41:11.341Z,66.6
2017-07-01T10:42:12.981Z,68.1
2017-07-01T10:43:14.588Z,68.0
2017-07-01T10:44:16.240Z,67.8
2017-07-01T10:45:17.843Z,67.8
2017-07-01T10:46:19.328Z,68.3
2017-07-01T10:47:20.945Z,67.9
2017-07-01T10:48:22.587Z,67.4
2017-07-01T10:49:24.153Z,66.2
2017-07-01T10:50:25.817Z,66.6
2017-07-01T10:51:27.499Z,66.5
2017-07-01T10:52:29.132Z,67.7
2017-07-01T10:53:30.707Z,66.2
2017-07-01T10:54:32.177Z,65.5
2017-07-01T10:55:33.679Z,65.1
2017-07-01T10:56:35.291Z,65.8
2017-07-01T10:57:36.933Z,66.2
2017-07-01T10:58:38.525Z,66.6
2017-07-01T10:59:40.172Z,65.7
2017-07-01T11:00:41.936Z,66.4
2017-07-01T11:01:43.541Z,65.5
2017-07-01T11:02:45.124Z,65.5
2017-07-01T11:03:46.719Z,64.5
2017-07-01T11:04:48.287Z,67.6
2017-07-01T11:05:49.955Z,67.1
2017-07-01T11:06:51.679Z,66.3
2017-07-01T11:07:53.361Z,67.7
2017-07-01T11:08:55.168Z,67.3
2017-07-01T11:09:56.819Z,68.6
2017-07-01T11:10:58.419Z,68.0
2017-07-01T11:12:00.099Z,67.7
2017-07-01T11:13:01.723Z,67.5
2017-07-01T11:14:03.337Z,67.8
2017-07-01T11:15:04.947Z,69.6
2017-07-01T11:16:06.588Z,70.2
2017-07-01T11:17:08.195Z,71.1
2017-07-01T11:18:09.797Z,70.1
2017-07-01T11:19:11.400Z,70.5
2017-07-01T11:20:13.062Z,72.2
2017-07-01T11:21:14.672Z,72.1
2017-07-01T11:22:16.295Z,75.1
2017-07-01T11:23:17.909Z,75.0
2017-07-01T11:24:19.414Z,74.2
2017-07-01T11:25:20.874Z,74.5
2017-07-01T11:26:22.512Z,73.1
2017-07-01T11:27:24.093Z,74.1
2017-07-01T11:28:25.695Z,74.5
2017-07-01T11:29:27.234Z,74.8
2017-07-01T11:30:28.753Z,76.5
2017-07-01T11:31:30.431Z,80.1
2017-07-01T11:32:32.078Z,77.6
2017-07-01T11:33:33.702Z,77.9
2017-07-01T11:34:35.280Z,78.4
2017-07-01T11:35:36.878Z,76.5
2017-07-01T11:36:38.628Z,76.2
2017-07-01T11:37:40.183Z,74.8
2017-07-01T11:38:41.704Z,74.7
2017-07-01T11:39:43.311Z,75.2
2017-07-01T11:40:44.979Z,74.0
2017-07-01T11:41:46.583Z,74.1
2017-07-01T11:42:48.210Z,75.1
2017-07-01T11:43:49.784Z,74.4
2017-07-01T11:44:51.426Z,74.4
2017-07-01T11:45:53.032Z,75.7
2017-07-01T11:46:54.726Z,75.8
2017-07-01T11:47:56.328Z,75.1
2017-07-01T11:48:57.930Z,76.4
2017-07-01T11:49:59.490Z,75.0
2017-07-01T11:51:01.100Z,75.1
2017-07-01T11:52:02.689Z,76.3
2017-07-01T11:53:04.280Z,78.3
2017-07-01T11:54:05.878Z,76.7
2017-07-01T11:55:07.470Z,77.4
2017-07-01T11:56:09.053Z,76.9
2017-07-01T11:57:10.629Z,77.8
2017-07-01T11:58:12.217Z,77.2
2017-07-01T11:59:13.761Z,77.4
2017-07-01T12:00:15.350Z,76.2
2017-07-01T12:01:16.989Z,74.9
2017-07-01T12:02:18.590Z,76.2
2017-07-01T12:03:20.189Z,74.6
2017-07-01T12:04:21.816Z,74.3
2017-07-01T12:05:23.384Z,75.4
2017-07-01T12:06:25.037Z,74.4
2017-07-01T12:07:26.652Z,74.2
2017-07-01T12:08:28.167Z,73.9
2017-07-01T12:09:29.757Z,72.9
2017-07-01T12:10:31.303Z,73.2
2017-07-01T12:11:32.945Z,72.1
2017-07-01T12:12:34.529Z,73.1
2017-07-01T12:13:36.109Z,74.2
2017-07-01T12:14:37.699Z,74.5
2017-07-01T12:15:39.310Z,74.4
2017-07-01T12:16:40.936Z,74.1
2017-07-01T12:17:42.672Z,74.2
2017-07-01T12:18:44.268Z,74.2
2017-07-01T12:19:45.868Z,74.0
2017-07-01T12:20:47.424Z,73.0
2017-07-01T12:21:49.039Z,72.9
2017-07-01T12:22:50.637Z,71.7
2017-07-01T12:23:52.262Z,72.6
2017-07-01T12:24:53.890Z,74.6
2017-07-01T12:25:55.639Z,74.1
2017-07-01T12:26:57.321Z,73.7
2017-07-01T12:27:58.967Z,73.0
2017-07-01T12:29:00.570Z,71.5
2017-07-01T12:30:02.081Z,71.4
2017-07-01T12:31:03.694Z,72.6
2017-07-01T12:32:05.315Z,71.7
2017-07-01T12:33:06.935Z,73.4
2017-07-01T12:34:08.526Z,73.7
2017-07-01T12:35:10.149Z,74.4
2017-07-01T12:36:11.750Z,72.0
2017-07-01T12:37:13.390Z,71.3
2017-07-01T12:38:14.958Z,71.3
2017-07-01T12:39:16.535Z,73.0
2017-07-01T12:40:18.189Z,71.6
2017-07-01T12:41:19.769Z,70.0
2017-07-01T12:42:21.460Z,72.0
2017-07-01T12:43:23.091Z,72.9
2017-07-01T12:44:24.711Z,71.5
2017-07-01T12:45:26.334Z,71.1
2017-07-01T12:46:27.850Z,71.4
2017-07-01T12:47:29.451Z,74.3
2017-07-01T12:48:31.134Z,74.8
2017-07-01T12:49:32.765Z,75.3
2017-07-01T12:50:34.567Z,75.5
2017-07-01T12:51:36.188Z,75.0
2017-07-01T12:52:37.697Z,76.1
2017-07-01T12:53:39.319Z,75.7
2017-07-01T12:54:40.932Z,75.4
2017-07-01T12:55:43.406Z,76.1
2017-07-01T12:56:45.014Z,75.4
2017-07-01T12:57:46.787Z,75.4
2017-07-01T12:58:48.409Z,75.5
2017-07-01T12:59:50.222Z,76.3
2017-07-01T13:00:52.050Z,77.1
2017-07-01T13:01:53.640Z,76.7
2017-07-01T13:02:55.249Z,76.7
2017-07-01T13:03:56.875Z,76.5
2017-07-01T13:04:58.485Z,75.6
2017-07-01T13:06:00.145Z,75.5
2017-07-01T13:07:01.778Z,75.9
2017-07-01T13:08:03.374Z,76.6
2017-07-01T13:09:04.959Z,76.4
2017-07-01T13:10:06.572Z,75.7
2017-07-01T13:11:08.120Z,74.5
2017-07-01T13:12:09.723Z,73.2
2017-07-01T13:13:11.381Z,74.3
2017-07-01T13:14:13.016Z,74.1
2017-07-01T13:15:14.518Z,74.5
2017-07-01T13:16:16.167Z,73.6
2017-07-01T13:17:17.650Z,75.2
2017-07-01T13:18:19.226Z,76.3
2017-07-01T13:19:20.854Z,76.2
2017-07-01T13:20:22.494Z,76.5
2017-07-01T13:21:24.095Z,75.1
2017-07-01T13:22:25.722Z,74.3
2017-07-01T13:23:27.346Z,74.5
2017-07-01T13:24:28.962Z,75.1
2017-07-01T13:25:30.618Z,75.1
2017-07-01T13:26:32.109Z,76.7
2017-07-01T13:27:33.701Z,77.1
2017-07-01T13:28:35.302Z,77.2
2017-07-01T13:29:36.930Z,77.3
2017-07-01T13:30:38.606Z,76.3
2017-07-01T13:31:40.201Z,76.9
2017-07-01T13:32:41.861Z,75.8
2017-07-01T13:33:43.495Z,74.6
2017-07-01T13:34:45.135Z,76.2
2017-07-01T13:35:46.617Z,75.3
2017-07-01T13:36:48.207Z,74.6
2017-07-01T13:37:50.251Z,74.7
2017-07-01T13:38:51.916Z,74.8
2017-07-01T13:39:53.556Z,75.2
2017-07-01T13:40:55.157Z,76.5
2017-07-01T13:41:56.705Z,77.1
2017-07-01T13:42:58.285Z,77.9
2017-07-01T13:43:59.902Z,77.2
2017-07-01T13:45:01.516Z,78.6
2017-07-01T13:46:03.130Z,78.6
2017-07-01T13:47:04.723Z,78.1
2017-07-01T13:48:06.362Z,78.3
2017-07-01T13:49:07.997Z,77.5
2017-07-01T13:50:09.640Z,77.3
2017-07-01T13:51:11.272Z,77.3
2017-07-01T13:52:12.897Z,77.3
2017-07-01T13:53:14.520Z,78.1